LGSM Airport Information

Runway Information
Runway 09 Length 6706 ft width 148 ft
Elevation 20 ft Threshold 230 ft Heading 94
Runway 27 Length 6706 ft Width 148 ft
Elevation 10 ft Threshold 0 ft Heading 274
Airport Frequencies
Type A/G Name RDO Frequency 563.7 MHZ
Type APP Name APP Frequency 122.1 MHZ
Type TWR Name TWR Frequency 122.1 MHZ
Airport Navaids
Type VOR-DME Name Samos Frequency 111600 KHZ
Type NDB Name Samos Frequency 375 KHZ
Airport Weather Information & NOTAM
ADDS - METARS form results

(1102 UTC 23 May 2019)
Data provider http://aviationweather.gov/metar/data/
 
METAR text: LGSM 231050Z 11007KT CAVOK 27/16 Q1010
Conditions at: LGSM (SAMOS AIRPORT , GR) observed 1050 UTC 23 May 2019
Temperature: 27.0°C (81°F)
Dewpoint: 16.0°C (61°F) [RH = 51%]
Pressure (altimeter): 29.82 inches Hg (1010.0 mb)
Winds: from the ESE (110 degrees) at 8 MPH (7 knots; 3.6 m/s)
Visibility: 6 or more miles (10+ km)
Ceiling: ceiling and visibility are OK
Clouds: unknown
Weather: no significant weather observed at this time

METAR text: LGSM 231020Z 11007KT CAVOK 27/16 Q1010
Conditions at: LGSM (SAMOS AIRPORT , GR) observed 1020 UTC 23 May 2019
Temperature: 27.0°C (81°F)
Dewpoint: 16.0°C (61°F) [RH = 51%]
Pressure (altimeter): 29.82 inches Hg (1010.0 mb)
Winds: from the ESE (110 degrees) at 8 MPH (7 knots; 3.6 m/s)
Visibility: 6 or more miles (10+ km)
Ceiling: ceiling and visibility are OK
Clouds: unknown
Weather: no significant weather observed at this time

Forecast for: LGSM (SAMOS AIRPORT , GR)
Text: TAF LGSM 230800Z 2309/2318 03005KT 9999 FEW020 SCT030
Forecast period: 0900 to 1200 UTC 23 May 2019
Forecast type: FROM: standard forecast or significant change
Winds: from the NNE (30 degrees) at 6 MPH (5 knots; 2.6 m/s)
Visibility: 6 or more miles 10+ km)
Ceiling: at least 12,000 feet AGL
Clouds: few clouds at 2000 feet AGL
scattered clouds at 3000 feet AGL
Weather: no significant weather forecast for this period
Text: BECMG 2312/2314 27008KT
Forecast period: 1200 to 1800 UTC 23 May 2019
Forecast type: BECOMING: Conditions expected to become as follows by 1400 UTC 23 May 2019
Winds: from the W (270 degrees) at 9 MPH (8 knots; 4.1 m/s)
Visibility: 6 or more miles 10+ km)
Ceiling: at least 12,000 feet AGL
Clouds: few clouds at 2000 feet AGL
scattered clouds at 3000 feet AGL
Weather: no significant weather forecast for this period